Time;durP1;ratioP1;P1;durP2;ratioP2;P2;SDS_P1;SDS_P2;PMS_P1;PMS_P2;Temp;Humidity;BMP_temperature;BMP_pressure;BME280_temperature;BME280_humidity;BME280_pressure;Samples;Min_cycle;Max_cycle;Signal;HPM_P1;HPM_P2
2022/07/29 00:01:20;;;;;;;3.78;1.63;;;19.10;79.20;;;;;;5011683;28;20029;-79
2022/07/29 00:03:46;;;;;;;2.83;1.40;;;19.10;78.70;;;;;;5010413;28;20026;-77
2022/07/29 00:06:12;;;;;;;5.05;1.40;;;19.20;78.00;;;;;;5011873;28;20418;-79
2022/07/29 00:08:37;;;;;;;3.15;1.70;;;19.30;77.90;;;;;;5011377;28;20033;-78
2022/07/29 00:11:03;;;;;;;6.82;1.70;;;19.40;77.30;;;;;;5011002;28;20026;-78
2022/07/29 00:13:29;;;;;;;1.30;1.23;;;19.50;76.70;;;;;;5011080;28;20079;-72
2022/07/29 00:15:55;;;;;;;2.05;1.45;;;19.50;76.30;;;;;;5011095;28;20113;-74
2022/07/29 00:18:20;;;;;;;2.08;1.23;;;19.60;75.90;;;;;;5011027;28;20055;-78
2022/07/29 00:20:46;;;;;;;2.33;1.48;;;19.60;75.90;;;;;;5026069;28;20413;-73
2022/07/29 00:23:11;;;;;;;1.98;1.13;;;19.70;75.50;;;;;;5010798;28;20101;-71
2022/07/29 00:25:37;;;;;;;2.85;1.60;;;19.60;75.40;;;;;;5010927;28;20574;-72
2022/07/29 00:28:02;;;;;;;3.17;1.50;;;19.60;75.40;;;;;;5010801;28;20033;-72
2022/07/29 00:30:28;;;;;;;2.15;1.33;;;19.60;75.20;;;;;;5025927;28;20375;-72
2022/07/29 00:32:53;;;;;;;2.42;1.42;;;19.60;74.80;;;;;;5010650;28;20025;-72
2022/07/29 00:38:03;;;;;;;1.40;1.30;;;19.60;74.70;;;;;;5010922;28;20049;-74
2022/07/29 00:40:29;;;;;;;1.25;1.13;;;19.70;74.50;;;;;;5010556;28;20474;-73
2022/07/29 00:42:54;;;;;;;1.42;1.27;;;19.70;74.30;;;;;;5010647;28;20037;-73
2022/07/29 00:45:21;;;;;;;2.10;1.02;;;19.60;74.30;;;;;;5010656;28;20099;-72
2022/07/29 00:47:47;;;;;;;2.65;0.98;;;19.60;74.50;;;;;;5010576;28;20512;-72
2022/07/29 00:50:13;;;;;;;3.50;1.20;;;19.50;74.80;;;;;;5015339;28;20025;-72
2022/07/29 00:52:40;;;;;;;1.67;1.17;;;19.50;75.10;;;;;;5021870;28;20037;-73
2022/07/29 00:55:08;;;;;;;1.13;1.00;;;19.40;74.90;;;;;;5011166;28;20038;-73
2022/07/29 00:57:35;;;;;;;1.20;1.10;;;19.40;75.10;;;;;;5010600;28;20450;-77
2022/07/29 01:00:00;;;;;;;1.42;1.00;;;19.50;75.10;;;;;;5010967;28;20481;-77
2022/07/29 01:02:26;;;;;;;1.30;1.20;;;19.50;74.80;;;;;;5010693;28;20031;-78
2022/07/29 01:04:52;;;;;;;2.88;1.80;;;19.40;75.00;;;;;;5010568;28;20037;-78
2022/07/29 01:07:18;;;;;;;2.50;1.15;;;19.30;75.60;;;;;;5010463;28;20025;-77
2022/07/29 01:09:45;;;;;;;1.05;1.05;;;19.20;76.10;;;;;;5010318;28;20026;-79
2022/07/29 01:12:13;;;;;;;1.25;1.10;;;19.20;75.90;;;;;;5010415;28;20033;-78
2022/07/29 01:14:40;;;;;;;1.27;1.17;;;19.10;76.10;;;;;;5011351;28;20389;-75
2022/07/29 01:17:23;;;;;;;2.00;1.55;;;19.10;76.20;;;;;;5033810;28;20042;-77
2022/07/29 01:20:17;;;;;;;3.08;1.00;;;19.00;76.50;;;;;;5019378;28;20029;-77
2022/07/29 01:22:45;;;;;;;1.15;1.05;;;19.00;76.60;;;;;;5011203;28;20033;-78
2022/07/29 01:25:45;;;;;;;2.03;1.27;;;19.10;76.80;;;;;;5013810;28;20022;-78
2022/07/29 01:28:51;;;;;;;1.73;1.10;;;19.00;76.80;;;;;;5013711;28;20039;-78
2022/07/29 01:31:22;;;;;;;1.77;1.50;;;19.00;77.10;;;;;;5012562;28;20394;-77
2022/07/29 01:33:54;;;;;;;1.73;1.63;;;18.90;77.30;;;;;;5030260;28;20042;-78
2022/07/29 01:36:32;;;;;;;1.52;1.23;;;18.90;77.40;;;;;;5017298;28;20026;-75
2022/07/29 01:39:28;;;;;;;1.63;1.33;;;18.90;77.50;;;;;;5014660;28;20033;-77
2022/07/29 01:42:01;;;;;;;;;;;18.80;77.60;;;;;;5029679;28;20481;-77
2022/07/29 01:44:32;;;;;;;2.67;1.70;;;18.80;77.40;;;;;;5013476;28;19905;-78
2022/07/29 01:47:01;;;;;;;1.80;1.35;;;18.80;77.80;;;;;;5013416;28;20475;-79
2022/07/29 01:49:35;;;;;;;1.40;1.30;;;18.70;77.90;;;;;;5013443;28;20053;-77
2022/07/29 01:52:05;;;;;;;1.75;1.50;;;18.70;78.10;;;;;;5013527;28;20054;-79
2022/07/29 01:54:45;;;;;;;3.47;1.38;;;18.60;78.10;;;;;;5013237;28;20045;-77
2022/07/29 01:57:14;;;;;;;2.13;1.38;;;18.50;78.60;;;;;;5013104;28;20091;-78
2022/07/29 01:59:42;;;;;;;2.17;1.50;;;18.50;78.70;;;;;;5013263;28;20437;-76
2022/07/29 02:02:09;;;;;;;1.60;1.45;;;18.50;78.70;;;;;;5013164;28;20370;-78
2022/07/29 02:04:36;;;;;;;1.77;1.60;;;18.50;78.80;;;;;;5013236;28;20037;-78
2022/07/29 02:07:06;;;;;;;1.67;1.40;;;18.60;78.50;;;;;;5013111;28;20034;-78
2022/07/29 02:09:35;;;;;;;1.98;1.20;;;18.60;78.90;;;;;;5012981;28;20026;-78
2022/07/29 02:12:03;;;;;;;2.38;1.85;;;18.60;78.00;;;;;;5013043;28;20026;-78
2022/07/29 02:14:33;;;;;;;1.80;1.65;;;18.60;78.30;;;;;;5012764;28;20515;-76
2022/07/29 02:17:01;;;;;;;1.92;1.70;;;18.50;78.50;;;;;;5028145;28;20030;-78
2022/07/29 02:19:29;;;;;;;1.77;1.67;;;18.50;78.60;;;;;;5012626;28;20059;-77
2022/07/29 02:21:57;;;;;;;2.80;1.95;;;18.50;78.90;;;;;;5012803;28;20042;-79
2022/07/29 02:24:24;;;;;;;2.97;1.60;;;18.40;79.80;;;;;;5012781;28;20539;-78
2022/07/29 02:26:51;;;;;;;1.90;1.58;;;18.40;79.00;;;;;;5014025;28;20071;-78
2022/07/29 02:29:18;;;;;;;3.60;1.50;;;18.50;78.40;;;;;;5012528;28;20044;-77
2022/07/29 02:31:46;;;;;;;2.30;1.80;;;18.40;78.40;;;;;;5027901;28;20108;-76
2022/07/29 02:34:14;;;;;;;1.90;1.65;;;18.40;78.70;;;;;;5011732;28;20038;-78
2022/07/29 02:36:41;;;;;;;1.92;1.67;;;18.40;78.60;;;;;;5012735;28;20034;-78
2022/07/29 02:39:08;;;;;;;2.15;1.63;;;18.40;78.50;;;;;;5012603;28;20045;-78
2022/07/29 02:41:45;;;;;;;1.60;1.50;;;18.40;78.70;;;;;;5012813;28;20080;-76
2022/07/29 02:44:14;;;;;;;2.40;1.95;;;18.40;78.70;;;;;;5012482;28;20029;-78
2022/07/29 02:46:51;;;;;;;1.73;1.60;;;18.50;78.60;;;;;;5012444;28;20054;-78
2022/07/29 02:49:52;;;;;;;1.17;1.13;;;18.50;78.20;;;;;;5012543;28;20382;-78
2022/07/29 02:52:47;;;;;;;3.10;1.63;;;18.50;78.50;;;;;;5012629;28;20367;-79
2022/07/29 02:55:30;;;;;;;2.90;2.00;;;18.60;77.80;;;;;;5027592;28;20041;-80
2022/07/29 02:58:05;;;;;;;2.17;1.70;;;18.70;77.60;;;;;;5012330;28;20567;-77
2022/07/29 03:00:36;;;;;;;2.60;1.77;;;18.70;77.20;;;;;;5012350;28;20447;-76
2022/07/29 03:03:06;;;;;;;1.60;1.50;;;18.80;77.00;;;;;;5012574;28;20032;-79
2022/07/29 03:05:32;;;;;;;1.92;1.60;;;18.80;76.80;;;;;;5012220;28;20519;-77
2022/07/29 03:08:03;;;;;;;2.55;1.35;;;18.90;76.70;;;;;;5012047;28;20042;-73
2022/07/29 03:10:30;;;;;;;2.53;1.42;;;18.90;76.40;;;;;;5012039;28;20060;-74
2022/07/29 03:12:56;;;;;;;1.67;1.58;;;19.00;76.30;;;;;;5012118;28;20096;-78
2022/07/29 03:15:22;;;;;;;2.08;1.70;;;19.00;75.90;;;;;;5011963;28;20053;-76
2022/07/29 03:17:48;;;;;;;2.75;1.70;;;18.90;76.30;;;;;;5012031;28;20474;-75
2022/07/29 03:20:14;;;;;;;2.38;1.65;;;18.90;76.40;;;;;;5012213;28;20030;-76
2022/07/29 03:22:46;;;;;;;1.88;1.55;;;18.80;76.60;;;;;;5027038;28;20022;-78
2022/07/29 03:25:17;;;;;;;4.75;2.45;;;18.70;76.80;;;;;;5012596;28;20026;-74
2022/07/29 03:27:43;;;;;;;3.42;2.03;;;18.60;77.50;;;;;;5011969;28;20054;-76
2022/07/29 03:30:10;;;;;;;2.63;2.03;;;18.60;77.50;;;;;;5011943;28;20053;-77
2022/07/29 03:32:35;;;;;;;1.90;1.60;;;18.60;77.40;;;;;;5026753;28;20048;-73
2022/07/29 03:35:01;;;;;;;1.88;1.70;;;18.60;77.00;;;;;;5011575;28;20470;-76
2022/07/29 03:37:27;;;;;;;2.33;1.52;;;18.60;77.30;;;;;;5011584;28;20022;-78
2022/07/29 03:39:56;;;;;;;4.43;1.77;;;18.70;78.20;;;;;;5011543;28;20030;-76
2022/07/29 03:42:25;;;;;;;1.95;1.70;;;18.70;77.20;;;;;;5011386;28;20105;-79
2022/07/29 03:44:52;;;;;;;2.35;2.03;;;18.70;77.10;;;;;;5011414;28;20042;-77
2022/07/29 03:47:22;;;;;;;3.63;2.00;;;18.60;76.80;;;;;;5010979;28;20029;-77
2022/07/29 03:49:50;;;;;;;4.28;2.08;;;18.50;77.20;;;;;;5011366;28;20389;-77
2022/07/29 03:52:16;;;;;;;2.38;2.17;;;18.40;78.00;;;;;;5011492;28;20032;-78
2022/07/29 03:54:42;;;;;;;2.58;2.15;;;18.40;77.90;;;;;;5011225;28;20435;-78
2022/07/29 03:57:11;;;;;;;4.57;2.20;;;18.50;77.80;;;;;;5011093;28;20073;-78
2022/07/29 03:59:37;;;;;;;7.18;2.65;;;18.50;77.70;;;;;;5011300;28;20030;-78
2022/07/29 04:02:05;;;;;;;3.20;2.03;;;18.50;77.80;;;;;;5011215;28;20026;-78
2022/07/29 04:04:34;;;;;;;2.50;2.00;;;18.50;77.80;;;;;;5011242;28;20055;-79
2022/07/29 04:07:00;;;;;;;2.28;1.55;;;18.50;77.90;;;;;;5011179;28;20509;-79
2022/07/29 04:09:26;;;;;;;2.78;1.75;;;18.50;78.10;;;;;;5011197;28;20065;-79
2022/07/29 04:11:52;;;;;;;3.00;1.90;;;18.50;77.80;;;;;;5011236;28;20090;-79
2022/07/29 04:14:18;;;;;;;3.95;2.03;;;18.60;77.60;;;;;;5011166;28;20052;-79
2022/07/29 04:16:43;;;;;;;2.55;1.90;;;18.60;77.40;;;;;;5010992;28;20034;-79
2022/07/29 04:19:09;;;;;;;2.08;1.88;;;18.60;77.20;;;;;;5011047;28;20071;-72
2022/07/29 04:21:39;;;;;;;4.28;1.90;;;18.50;77.20;;;;;;5010437;28;20115;-72
2022/07/29 04:24:05;;;;;;;3.63;2.17;;;18.50;77.50;;;;;;5011309;28;20374;-72
2022/07/29 04:26:31;;;;;;;2.97;2.15;;;18.60;77.40;;;;;;5010682;28;20026;-72
2022/07/29 04:28:56;;;;;;;2.60;2.25;;;18.60;77.50;;;;;;5010803;28;20063;-71
2022/07/29 04:31:21;;;;;;;3.10;2.25;;;18.60;77.30;;;;;;5026209;28;20045;-71
2022/07/29 04:33:47;;;;;;;4.35;2.33;;;18.70;76.90;;;;;;5018347;28;20034;-73
2022/07/29 04:36:12;;;;;;;4.53;2.33;;;18.70;76.60;;;;;;5012624;28;20041;-71
2022/07/29 04:38:38;;;;;;;3.78;2.15;;;18.70;76.30;;;;;;5010544;28;20022;-71
2022/07/29 04:41:06;;;;;;;3.10;2.17;;;18.80;75.80;;;;;;5010776;28;20078;-71
2022/07/29 04:43:32;;;;;;;3.72;2.05;;;18.90;75.90;;;;;;5010682;28;20401;-71
2022/07/29 04:45:58;;;;;;;2.25;1.65;;;19.00;75.50;;;;;;5010647;28;20026;-71
2022/07/29 04:48:23;;;;;;;2.47;1.95;;;19.00;75.50;;;;;;5010570;28;20022;-71
2022/07/29 04:50:49;;;;;;;4.80;2.33;;;19.10;75.10;;;;;;5025913;28;20030;-72
2022/07/29 04:53:15;;;;;;;2.90;2.22;;;19.10;75.40;;;;;;5010559;28;20033;-71
2022/07/29 04:55:40;;;;;;;2.67;2.03;;;19.10;75.10;;;;;;5010422;28;20174;-71
2022/07/29 04:58:07;;;;;;;3.60;2.08;;;19.10;75.30;;;;;;5009238;28;20050;-71
2022/07/29 05:00:33;;;;;;;3.25;2.20;;;19.20;75.20;;;;;;5010396;28;20397;-72
2022/07/29 05:02:58;;;;;;;6.47;2.08;;;19.00;75.30;;;;;;5010365;28;20026;-71
2022/07/29 05:05:24;;;;;;;2.35;1.83;;;19.00;76.00;;;;;;5025611;28;20078;-72
2022/07/29 05:07:49;;;;;;;4.55;2.03;;;18.90;76.20;;;;;;5010455;28;20038;-72
2022/07/29 05:10:15;;;;;;;4.32;2.00;;;18.90;76.30;;;;;;5010123;28;20022;-72
2022/07/29 05:12:40;;;;;;;2.05;1.85;;;18.80;76.40;;;;;;5012246;28;20037;-72
2022/07/29 05:15:06;;;;;;;5.70;2.03;;;18.80;76.70;;;;;;5011628;28;20042;-74
2022/07/29 05:17:32;;;;;;;2.97;2.30;;;18.80;77.00;;;;;;5010273;28;20022;-73
2022/07/29 05:19:58;;;;;;;6.65;2.33;;;18.80;77.10;;;;;;5010285;28;20030;-73
2022/07/29 05:22:23;;;;;;;3.08;2.25;;;18.80;77.00;;;;;;5025453;28;20018;-73
2022/07/29 05:24:49;;;;;;;3.40;2.28;;;18.80;76.90;;;;;;5010191;28;20030;-74
2022/07/29 05:27:14;;;;;;;3.67;2.35;;;18.80;77.10;;;;;;5010220;28;20026;-73
2022/07/29 05:29:40;;;;;;;4.13;2.38;;;18.80;77.20;;;;;;5010282;28;20045;-73
2022/07/29 05:32:06;;;;;;;4.95;2.25;;;18.80;77.40;;;;;;5010311;28;20588;-73
2022/07/29 05:34:31;;;;;;;4.22;2.83;;;18.80;77.70;;;;;;5010421;28;20374;-74
2022/07/29 05:36:57;;;;;;;2.75;2.55;;;18.70;77.80;;;;;;5010210;28;20108;-73
2022/07/29 05:39:23;;;;;;;4.50;2.25;;;18.70;77.90;;;;;;5010389;28;20102;-74
2022/07/29 05:41:49;;;;;;;4.80;2.55;;;18.80;77.80;;;;;;5015425;28;20006;-73
2022/07/29 05:44:15;;;;;;;3.92;2.20;;;18.90;77.80;;;;;;5028198;28;20034;-74
2022/07/29 05:46:40;;;;;;;3.70;2.28;;;19.00;77.30;;;;;;5032830;28;20014;-74
2022/07/29 05:49:07;;;;;;;3.53;2.28;;;19.10;77.00;;;;;;5033952;28;20018;-74
2022/07/29 05:51:33;;;;;;;9.80;3.30;;;19.30;77.00;;;;;;5033076;28;20078;-72
2022/07/29 05:53:59;;;;;;;3.03;2.20;;;19.30;76.80;;;;;;5033144;28;20038;-73
2022/07/29 05:56:25;;;;;;;7.05;2.65;;;19.40;76.80;;;;;;5032033;28;20062;-74
2022/07/29 05:58:51;;;;;;;4.30;3.08;;;19.50;76.80;;;;;;5025914;28;20336;-73
2022/07/29 06:01:17;;;;;;;4.90;2.85;;;19.60;76.10;;;;;;5025430;28;20060;-74
2022/07/29 06:03:43;;;;;;;3.05;2.47;;;19.90;75.70;;;;;;5026596;28;20030;-73
2022/07/29 06:06:09;;;;;;;6.18;2.80;;;20.10;75.00;;;;;;5026074;28;20030;-73
2022/07/29 06:08:36;;;;;;;6.78;2.75;;;20.30;74.30;;;;;;5021773;28;20033;-73
2022/07/29 06:11:02;;;;;;;4.68;2.50;;;20.30;74.60;;;;;;5016184;28;20070;-73
2022/07/29 06:13:27;;;;;;;3.63;2.40;;;20.40;73.70;;;;;;5012660;28;20022;-72
2022/07/29 06:15:53;;;;;;;5.20;2.35;;;20.50;73.60;;;;;;5013228;28;20033;-73
2022/07/29 06:18:20;;;;;;;7.75;2.85;;;20.50;73.00;;;;;;5013417;28;20034;-73
2022/07/29 06:20:46;;;;;;;4.30;2.13;;;20.60;72.80;;;;;;5026315;28;20089;-75
2022/07/29 06:23:12;;;;;;;4.93;2.67;;;20.70;72.10;;;;;;5029401;28;20033;-77
2022/07/29 06:25:40;;;;;;;6.15;3.03;;;20.80;71.50;;;;;;5028248;28;20059;-78
2022/07/29 06:28:06;;;;;;;2.40;2.10;;;21.10;70.90;;;;;;5027468;28;20021;-74
2022/07/29 06:30:32;;;;;;;5.03;2.60;;;21.20;70.20;;;;;;5028865;28;20033;-78
2022/07/29 06:32:57;;;;;;;2.72;2.38;;;21.30;69.80;;;;;;5027517;28;20030;-77
2022/07/29 06:35:23;;;;;;;3.75;2.25;;;21.40;69.40;;;;;;5028702;28;20037;-80
2022/07/29 06:37:49;;;;;;;6.40;2.80;;;21.60;69.00;;;;;;5032001;28;20032;-81
2022/07/29 06:42:58;;;;;;;6.45;3.08;;;21.80;68.90;;;;;;5012644;28;20044;-79
2022/07/29 06:45:24;;;;;;;6.75;2.67;;;21.90;68.40;;;;;;5013227;28;20041;-78
2022/07/29 06:47:50;;;;;;;6.90;3.10;;;22.00;66.60;;;;;;5012733;28;20041;-81
2022/07/29 06:50:15;;;;;;;7.93;3.25;;;22.00;65.90;;;;;;5013635;28;20018;-79
2022/07/29 06:52:41;;;;;;;3.15;2.80;;;22.00;65.80;;;;;;5012526;28;20045;-82
2022/07/29 06:55:07;;;;;;;3.33;2.47;;;22.10;65.90;;;;;;5012182;28;20091;-78
2022/07/29 06:57:33;;;;;;;3.30;2.65;;;22.30;66.20;;;;;;5027180;28;20050;-77
2022/07/29 06:59:59;;;;;;;4.22;2.90;;;22.50;65.90;;;;;;5012188;28;20097;-76
2022/07/29 07:02:25;;;;;;;3.70;2.80;;;22.70;65.60;;;;;;5012324;28;20458;-83
2022/07/29 07:04:51;;;;;;;6.30;2.55;;;22.90;65.30;;;;;;5013420;28;20026;-84
2022/07/29 07:07:17;;;;;;;3.30;2.20;;;23.10;64.70;;;;;;5013294;28;20014;-87
2022/07/29 07:09:43;;;;;;;3.50;2.55;;;23.20;64.10;;;;;;5012884;28;20038;-84
2022/07/29 07:12:08;;;;;;;4.45;2.67;;;23.30;63.60;;;;;;5028467;28;20018;-74
2022/07/29 07:14:34;;;;;;;2.22;2.03;;;23.40;62.70;;;;;;5012307;28;20057;-84
2022/07/29 07:17:00;;;;;;;17.83;3.30;;;23.50;62.50;;;;;;5011927;28;20526;-79
2022/07/29 07:19:26;;;;;;;6.47;2.88;;;23.50;61.20;;;;;;5011755;28;20029;-74
2022/07/29 07:21:54;;;;;;;6.10;2.67;;;23.60;60.60;;;;;;5010938;28;20030;-74
2022/07/29 07:24:19;;;;;;;12.75;2.70;;;23.60;60.80;;;;;;5011629;28;20158;-73
2022/07/29 07:26:45;;;;;;;5.40;2.58;;;23.70;60.70;;;;;;5011422;28;20057;-73
2022/07/29 07:29:11;;;;;;;5.05;2.60;;;23.80;60.10;;;;;;5011295;28;20053;-74
2022/07/29 07:31:37;;;;;;;4.30;2.33;;;23.80;61.70;;;;;;5011557;28;20044;-74
2022/07/29 07:34:03;;;;;;;3.55;2.28;;;23.70;61.60;;;;;;5011125;28;20044;-74
2022/07/29 07:36:29;;;;;;;2.38;2.15;;;23.80;62.00;;;;;;5011294;28;20030;-74
2022/07/29 07:38:54;;;;;;;6.75;2.58;;;23.90;61.10;;;;;;5010947;28;20022;-74
2022/07/29 07:41:20;;;;;;;5.60;2.65;;;24.10;59.80;;;;;;5011071;28;20026;-74
2022/07/29 07:43:46;;;;;;;3.78;2.45;;;24.30;59.20;;;;;;5011292;28;20533;-74
2022/07/29 07:46:12;;;;;;;2.65;2.40;;;24.40;58.40;;;;;;5010987;28;20026;-75
2022/07/29 07:48:37;;;;;;;3.28;2.20;;;24.20;57.50;;;;;;5011329;28;20036;-74
2022/07/29 07:51:03;;;;;;;4.35;2.40;;;24.30;58.20;;;;;;5011118;28;20049;-74
2022/07/29 07:53:29;;;;;;;5.20;2.45;;;24.30;58.20;;;;;;5011032;28;20022;-74
2022/07/29 07:55:55;;;;;;;3.80;2.28;;;24.40;57.40;;;;;;5026297;28;20037;-74
2022/07/29 07:58:20;;;;;;;4.05;2.67;;;24.60;57.10;;;;;;5010995;28;20049;-73
2022/07/29 08:00:46;;;;;;;5.60;2.30;;;24.80;56.40;;;;;;5011061;28;20132;-74
2022/07/29 08:03:13;;;;;;;3.83;2.22;;;25.10;56.00;;;;;;5011115;28;20078;-75
2022/07/29 08:05:39;;;;;;;3.97;2.35;;;25.30;55.20;;;;;;5010930;28;20013;-75
2022/07/29 08:08:05;;;;;;;7.15;2.63;;;25.50;53.30;;;;;;5010791;28;20025;-74
2022/07/29 08:13:15;;;;;;;4.18;2.28;;;25.90;52.40;;;;;;5010882;28;20056;-74
2022/07/29 08:15:42;;;;;;;6.20;2.40;;;26.00;50.10;;;;;;5010741;28;20038;-74
2022/07/29 08:18:08;;;;;;;8.05;2.20;;;25.70;48.80;;;;;;5010809;28;20018;-74
2022/07/29 08:20:35;;;;;;;6.25;2.25;;;25.40;43.80;;;;;;5010405;28;20603;-74
2022/07/29 08:23:05;;;;;;;4.93;2.42;;;24.90;45.70;;;;;;5010564;28;20033;-74
2022/07/29 08:25:32;;;;;;;6.68;2.60;;;24.90;46.50;;;;;;5010737;28;20099;-74
2022/07/29 08:27:58;;;;;;;7.28;2.63;;;25.00;46.20;;;;;;5025758;28;20140;-75
2022/07/29 08:30:24;;;;;;;7.10;2.58;;;25.20;46.40;;;;;;5010460;28;20394;-75
2022/07/29 08:32:52;;;;;;;5.80;2.33;;;24.90;46.70;;;;;;5010407;28;20026;-74
2022/07/29 08:35:19;;;;;;;6.10;2.33;;;24.70;46.50;;;;;;5010145;28;20030;-74
2022/07/29 08:37:44;;;;;;;3.78;2.58;;;24.60;46.70;;;;;;5010524;28;20030;-75
2022/07/29 08:40:11;;;;;;;7.32;2.42;;;24.50;46.60;;;;;;5010659;28;20087;-75
2022/07/29 08:42:36;;;;;;;4.00;2.55;;;24.30;46.80;;;;;;5010345;28;20389;-75
2022/07/29 08:45:03;;;;;;;6.32;3.08;;;24.30;47.50;;;;;;5025242;28;20022;-75
2022/07/29 08:47:29;;;;;;;7.97;2.90;;;24.40;47.20;;;;;;5010243;28;20079;-74
2022/07/29 08:49:54;;;;;;;4.80;2.50;;;24.60;46.80;;;;;;5010613;28;20026;-75
2022/07/29 08:52:21;;;;;;;7.15;2.50;;;24.70;46.70;;;;;;5015947;28;20148;-74
2022/07/29 08:54:48;;;;;;;6.00;2.70;;;24.80;45.80;;;;;;5010230;28;20547;-75
2022/07/29 08:57:14;;;;;;;4.55;2.78;;;24.60;46.20;;;;;;5010056;28;20160;-75
2022/07/29 08:59:42;;;;;;;8.93;3.45;;;24.80;46.90;;;;;;5009974;28;20386;-75
2022/07/29 09:02:18;;;;;;;8.10;2.80;;;24.90;46.00;;;;;;5010382;28;20105;-77
2022/07/29 09:04:45;;;;;;;10.07;3.85;;;25.00;45.20;;;;;;5025095;28;20026;-74
2022/07/29 09:07:15;;;;;;;10.02;2.63;;;24.90;45.80;;;;;;5010366;28;20026;-76
2022/07/29 09:09:41;;;;;;;5.07;2.53;;;24.80;46.10;;;;;;5010290;28;20105;-75
2022/07/29 09:12:08;;;;;;;4.95;2.53;;;24.70;45.70;;;;;;5009940;28;20498;-74
2022/07/29 09:14:34;;;;;;;6.72;2.78;;;24.80;46.10;;;;;;5010216;28;20065;-74
2022/07/29 09:17:00;;;;;;;4.75;2.13;;;24.80;45.70;;;;;;5009854;28;20132;-77
2022/07/29 09:19:31;;;;;;;6.78;2.75;;;24.80;45.00;;;;;;5009982;28;20071;-78
2022/07/29 09:21:58;;;;;;;3.80;2.53;;;25.00;46.00;;;;;;5009747;28;20431;-76
2022/07/29 09:24:38;;;;;;;5.47;2.20;;;25.10;44.50;;;;;;5009475;28;20022;-73
2022/07/29 09:27:18;;;;;;;7.80;2.17;;;25.10;44.20;;;;;;5009695;28;20104;-73
2022/07/29 09:29:44;;;;;;;4.82;1.80;;;25.20;43.90;;;;;;5009799;28;20025;-74
2022/07/29 09:32:10;;;;;;;10.63;2.75;;;25.10;42.30;;;;;;5009629;28;20030;-74
2022/07/29 09:34:36;;;;;;;7.80;3.10;;;25.20;41.60;;;;;;5009885;28;20048;-75
2022/07/29 09:37:03;;;;;;;3.88;2.22;;;25.20;43.20;;;;;;5024713;28;20116;-74
2022/07/29 09:39:32;;;;;;;7.57;2.30;;;25.10;43.00;;;;;;5024466;28;20026;-74
2022/07/29 09:42:00;;;;;;;8.73;2.28;;;25.20;42.80;;;;;;5025040;28;20022;-75
2022/07/29 09:44:26;;;;;;;2.97;2.33;;;25.20;43.80;;;;;;5026577;28;20022;-74
2022/07/29 09:47:06;;;;;;;6.93;2.17;;;25.10;43.90;;;;;;5028244;28;20030;-74
2022/07/29 09:49:33;;;;;;;8.10;2.30;;;25.20;43.90;;;;;;5028235;28;20470;-74
2022/07/29 09:52:08;;;;;;;7.28;2.55;;;25.20;44.20;;;;;;5027777;28;20033;-75
2022/07/29 09:54:37;;;;;;;10.20;2.75;;;25.00;44.60;;;;;;5027999;28;20143;-74
2022/07/29 09:57:12;;;;;;;3.42;2.17;;;25.00;45.30;;;;;;5027798;28;20050;-74
2022/07/29 09:59:38;;;;;;;5.68;2.20;;;25.00;45.40;;;;;;5027996;28;20466;-74
2022/07/29 10:02:12;;;;;;;5.50;2.55;;;24.90;45.20;;;;;;5027641;28;20116;-74
2022/07/29 10:04:42;;;;;;;6.18;2.55;;;24.80;45.40;;;;;;5027938;28;20100;-74
2022/07/29 10:07:09;;;;;;;8.27;2.70;;;24.80;44.90;;;;;;5027532;28;20037;-74
2022/07/29 10:09:35;;;;;;;3.20;2.47;;;24.80;44.70;;;;;;5027795;27;20025;-74
2022/07/29 10:12:10;;;;;;;5.10;2.38;;;24.80;44.40;;;;;;5027528;28;20022;-75
2022/07/29 10:14:36;;;;;;;6.10;2.38;;;24.80;44.80;;;;;;5027412;28;20037;-75
2022/07/29 10:17:04;;;;;;;7.35;2.47;;;24.70;44.30;;;;;;5027552;28;20022;-74
2022/07/29 10:19:31;;;;;;;9.38;2.42;;;24.70;44.10;;;;;;5027580;28;20486;-74
2022/07/29 10:21:58;;;;;;;7.03;2.53;;;24.70;44.10;;;;;;5027659;28;20112;-74
2022/07/29 10:24:29;;;;;;;4.25;2.17;;;24.60;45.20;;;;;;5027657;28;20022;-74
2022/07/29 10:26:56;;;;;;;7.10;2.70;;;24.60;44.70;;;;;;5027930;28;20026;-74
2022/07/29 10:29:22;;;;;;;6.28;2.45;;;24.40;45.40;;;;;;5027893;28;20083;-75
2022/07/29 10:32:18;;;;;;;8.85;2.78;;;24.40;47.20;;;;;;5012393;28;20079;-75
2022/07/29 10:35:09;;;;;;;6.40;2.75;;;24.50;46.10;;;;;;5012204;28;20426;-76
2022/07/29 10:37:57;;;;;;;4.50;2.67;;;24.50;47.20;;;;;;5011718;28;20030;-74
2022/07/29 10:43:22;;;;;;;5.93;2.60;;;24.50;46.30;;;;;;5012124;28;20033;-74
2022/07/29 10:45:48;;;;;;;6.32;2.80;;;24.40;46.20;;;;;;5027391;28;20026;-74
2022/07/29 10:48:14;;;;;;;5.47;2.70;;;24.40;46.70;;;;;;5027053;28;20034;-77
2022/07/29 10:50:59;;;;;;;8.73;2.60;;;24.60;47.50;;;;;;5027510;28;20466;-74
2022/07/29 10:53:46;;;;;;;5.50;2.47;;;24.60;47.90;;;;;;5027475;28;20022;-74
2022/07/29 10:56:30;;;;;;;8.50;3.03;;;24.60;46.70;;;;;;5025804;28;20510;-75
2022/07/29 10:59:17;;;;;;;6.75;2.47;;;24.50;46.70;;;;;;5027381;28;20059;-74
2022/07/29 11:01:43;;;;;;;4.03;2.30;;;24.50;46.50;;;;;;5026949;28;20033;-74
2022/07/29 11:04:09;;;;;;;5.20;2.58;;;24.50;46.70;;;;;;5026844;28;20022;-74
2022/07/29 11:06:58;;;;;;;4.78;2.70;;;24.60;47.10;;;;;;5027098;28;20053;-74
2022/07/29 11:09:24;;;;;;;9.05;2.72;;;24.70;46.50;;;;;;5015975;28;20082;-74
2022/07/29 11:11:49;;;;;;;7.85;3.05;;;24.90;47.30;;;;;;5027113;28;20033;-76
2022/07/29 11:14:17;;;;;;;11.68;2.60;;;25.00;46.00;;;;;;5026726;28;20030;-74
2022/07/29 11:17:03;;;;;;;6.03;2.67;;;25.10;44.40;;;;;;5026735;28;20017;-75
2022/07/29 11:19:30;;;;;;;3.17;2.40;;;25.40;43.80;;;;;;5026745;28;20037;-73
2022/07/29 11:21:56;;;;;;;4.75;2.47;;;25.50;44.00;;;;;;5011554;28;20406;-74
2022/07/29 11:24:28;;;;;;;6.82;2.20;;;25.60;44.40;;;;;;5026950;28;20037;-74
2022/07/29 11:27:09;;;;;;;4.68;2.33;;;25.80;42.20;;;;;;5026870;28;20026;-75
2022/07/29 11:29:51;;;;;;;9.02;2.80;;;25.80;41.10;;;;;;5026615;28;20474;-74
2022/07/29 11:32:19;;;;;;;6.80;2.55;;;25.90;41.50;;;;;;5026763;28;20022;-75
2022/07/29 11:34:47;;;;;;;7.50;2.85;;;26.10;40.60;;;;;;5026475;28;20034;-75
2022/07/29 11:37:12;;;;;;;4.35;2.17;;;26.20;41.00;;;;;;5026790;28;20387;-73
2022/07/29 11:39:59;;;;;;;8.52;2.33;;;26.50;39.60;;;;;;5025738;28;20034;-74
2022/07/29 11:42:24;;;;;;;6.82;2.28;;;26.90;38.10;;;;;;5024939;28;20041;-73
2022/07/29 11:44:57;;;;;;;4.15;2.58;;;27.20;38.10;;;;;;5026532;28;20478;-73
2022/07/29 11:47:23;;;;;;;2.88;2.45;;;26.70;38.50;;;;;;5026557;28;20109;-75
2022/07/29 11:49:51;;;;;;;6.43;3.17;;;26.60;39.10;;;;;;5026351;28;20413;-74
2022/07/29 11:52:17;;;;;;;3.20;2.55;;;26.60;38.70;;;;;;5026390;28;20022;-74
2022/07/29 11:54:43;;;;;;;6.35;2.28;;;26.30;39.80;;;;;;5026066;28;20030;-74
2022/07/29 11:57:09;;;;;;;4.30;2.70;;;26.30;39.50;;;;;;4993222;28;20083;-73
2022/07/29 11:59:42;;;;;;;5.30;2.80;;;26.30;40.10;;;;;;5026165;28;20086;-74
2022/07/29 12:02:09;;;;;;;8.82;2.80;;;26.20;40.90;;;;;;5026117;28;20030;-74
2022/07/29 12:04:51;;;;;;;3.80;2.53;;;26.00;42.50;;;;;;5026199;28;20030;-74
2022/07/29 12:07:18;;;;;;;8.65;2.95;;;26.20;42.30;;;;;;5025801;28;20667;-74
2022/07/29 12:09:54;;;;;;;8.32;2.58;;;26.20;42.20;;;;;;5026123;28;20061;-74
2022/07/29 12:12:20;;;;;;;7.53;2.78;;;26.30;41.70;;;;;;5025952;28;20052;-73
2022/07/29 12:14:46;;;;;;;7.20;2.92;;;26.60;40.00;;;;;;5025803;28;20038;-74
2022/07/29 12:17:34;;;;;;;5.88;2.90;;;26.50;40.70;;;;;;5025975;28;20018;-73
2022/07/29 12:20:02;;;;;;;4.47;2.70;;;26.60;40.30;;;;;;5026097;28;20029;-74
2022/07/29 12:22:29;;;;;;;4.90;3.08;;;26.60;41.20;;;;;;5025958;28;20033;-73
2022/07/29 12:25:01;;;;;;;6.32;3.08;;;26.40;42.50;;;;;;5025891;28;20451;-73
2022/07/29 12:27:28;;;;;;;7.50;2.80;;;26.10;42.90;;;;;;5025925;28;20470;-73
2022/07/29 12:30:06;;;;;;;5.25;2.67;;;26.00;42.10;;;;;;5025646;28;20034;-74
2022/07/29 12:32:34;;;;;;;4.35;3.22;;;26.00;43.00;;;;;;5025654;28;20030;-73
2022/07/29 12:35:09;;;;;;;5.30;2.90;;;25.90;43.00;;;;;;5010399;28;20249;-72
2022/07/29 12:37:37;;;;;;;7.43;2.88;;;25.80;42.90;;;;;;5025786;28;20029;-73
2022/07/29 12:40:04;;;;;;;4.65;2.95;;;25.80;43.40;;;;;;5009006;28;20508;-73
2022/07/29 12:42:30;;;;;;;3.47;2.65;;;25.90;42.60;;;;;;5025279;28;20033;-74
2022/07/29 12:44:56;;;;;;;9.40;3.22;;;26.00;43.30;;;;;;5025394;28;20086;-74
2022/07/29 12:47:21;;;;;;;6.35;3.17;;;25.90;43.20;;;;;;5025597;28;20022;-74
2022/07/29 12:49:49;;;;;;;5.20;3.30;;;25.70;42.60;;;;;;5010549;28;20113;-74
2022/07/29 12:52:31;;;;;;;5.30;3.17;;;25.80;42.50;;;;;;5025783;28;20496;-76
2022/07/29 12:54:56;;;;;;;7.18;2.83;;;25.70;41.80;;;;;;5025578;28;20038;-73
2022/07/29 12:57:23;;;;;;;7.43;2.67;;;25.80;41.50;;;;;;5027924;28;20060;-73
2022/07/29 13:00:10;;;;;;;5.50;2.40;;;25.90;39.70;;;;;;5025663;28;20022;-74
2022/07/29 13:02:36;;;;;;;6.75;2.38;;;25.70;39.00;;;;;;5025561;28;20022;-74
2022/07/29 13:05:04;;;;;;;4.40;2.20;;;25.80;38.40;;;;;;5025575;28;20026;-76
2022/07/29 13:07:32;;;;;;;5.13;2.30;;;25.80;37.00;;;;;;5025401;28;20026;-74